sensor_id;sensor_type;location;lat;lon;timestamp;P1;durP1;ratioP1;P2;durP2;ratioP2
42616;SDS011;28250;52.320;0.360;2022-09-09T00:04:33;7.75;;;2.20;;
42616;SDS011;28250;52.320;0.360;2022-09-09T00:21:23;9.88;;;2.72;;
42616;SDS011;28250;52.320;0.360;2022-09-09T00:24:23;7.65;;;2.00;;
42616;SDS011;28250;52.320;0.360;2022-09-09T00:27:25;5.68;;;1.92;;
42616;SDS011;28250;52.320;0.360;2022-09-09T00:32:50;5.65;;;2.53;;
42616;SDS011;28250;52.320;0.360;2022-09-09T00:35:25;11.43;;;2.55;;
42616;SDS011;28250;52.320;0.360;2022-09-09T00:38:05;8.63;;;2.60;;
42616;SDS011;28250;52.320;0.360;2022-09-09T00:43:55;7.47;;;2.50;;
42616;SDS011;28250;52.320;0.360;2022-09-09T00:54:44;7.47;;;2.38;;
42616;SDS011;28250;52.320;0.360;2022-09-09T01:11:16;8.85;;;2.47;;
42616;SDS011;28250;52.320;0.360;2022-09-09T01:13:54;5.50;;;2.60;;
42616;SDS011;28250;52.320;0.360;2022-09-09T01:16:33;5.75;;;2.40;;
42616;SDS011;28250;52.320;0.360;2022-09-09T01:19:00;7.20;;;2.40;;
42616;SDS011;28250;52.320;0.360;2022-09-09T01:24:33;7.18;;;1.88;;
42616;SDS011;28250;52.320;0.360;2022-09-09T01:27:53;8.55;;;2.42;;
42616;SDS011;28250;52.320;0.360;2022-09-09T01:30:25;7.03;;;2.40;;
42616;SDS011;28250;52.320;0.360;2022-09-09T01:32:55;8.65;;;2.50;;
42616;SDS011;28250;52.320;0.360;2022-09-09T01:35:32;8.65;;;2.40;;
42616;SDS011;28250;52.320;0.360;2022-09-09T01:38:04;4.95;;;2.50;;
42616;SDS011;28250;52.320;0.360;2022-09-09T01:40:31;7.78;;;2.28;;
42616;SDS011;28250;52.320;0.360;2022-09-09T01:42:59;8.95;;;2.20;;
42616;SDS011;28250;52.320;0.360;2022-09-09T01:45:25;8.30;;;3.17;;
42616;SDS011;28250;52.320;0.360;2022-09-09T01:47:52;6.18;;;1.77;;
42616;SDS011;28250;52.320;0.360;2022-09-09T01:50:27;8.15;;;2.50;;
42616;SDS011;28250;52.320;0.360;2022-09-09T01:52:57;9.00;;;2.72;;
42616;SDS011;28250;52.320;0.360;2022-09-09T01:55:31;7.55;;;2.58;;
42616;SDS011;28250;52.320;0.360;2022-09-09T02:01:11;7.57;;;2.60;;
42616;SDS011;28250;52.320;0.360;2022-09-09T02:04:08;7.88;;;2.83;;
42616;SDS011;28250;52.320;0.360;2022-09-09T02:06:50;9.43;;;2.60;;
42616;SDS011;28250;52.320;0.360;2022-09-09T02:09:26;8.63;;;2.75;;
42616;SDS011;28250;52.320;0.360;2022-09-09T02:12:00;7.88;;;3.10;;
42616;SDS011;28250;52.320;0.360;2022-09-09T02:14:42;6.25;;;2.83;;
42616;SDS011;28250;52.320;0.360;2022-09-09T02:17:22;12.38;;;2.97;;
42616;SDS011;28250;52.320;0.360;2022-09-09T02:20:05;7.38;;;2.55;;
42616;SDS011;28250;52.320;0.360;2022-09-09T02:22:44;6.60;;;2.50;;
42616;SDS011;28250;52.320;0.360;2022-09-09T02:25:17;6.53;;;2.28;;
42616;SDS011;28250;52.320;0.360;2022-09-09T02:27:49;7.68;;;3.10;;
42616;SDS011;28250;52.320;0.360;2022-09-09T02:30:17;7.40;;;2.38;;
42616;SDS011;28250;52.320;0.360;2022-09-09T02:32:51;7.32;;;3.08;;
42616;SDS011;28250;52.320;0.360;2022-09-09T02:35:28;6.65;;;2.17;;
42616;SDS011;28250;52.320;0.360;2022-09-09T02:37:58;7.43;;;2.20;;
42616;SDS011;28250;52.320;0.360;2022-09-09T02:40:31;7.25;;;3.25;;
42616;SDS011;28250;52.320;0.360;2022-09-09T02:43:00;8.35;;;2.88;;
42616;SDS011;28250;52.320;0.360;2022-09-09T02:45:32;7.72;;;2.80;;
42616;SDS011;28250;52.320;0.360;2022-09-09T02:48:18;9.05;;;2.75;;
42616;SDS011;28250;52.320;0.360;2022-09-09T02:51:15;7.03;;;2.60;;
42616;SDS011;28250;52.320;0.360;2022-09-09T02:56:25;3.28;;;2.33;;
42616;SDS011;28250;52.320;0.360;2022-09-09T02:58:57;8.88;;;2.45;;
42616;SDS011;28250;52.320;0.360;2022-09-09T03:01:25;8.90;;;3.20;;
42616;SDS011;28250;52.320;0.360;2022-09-09T03:03:51;10.32;;;2.55;;
42616;SDS011;28250;52.320;0.360;2022-09-09T03:06:20;6.88;;;3.15;;
42616;SDS011;28250;52.320;0.360;2022-09-09T03:08:54;8.65;;;3.20;;
42616;SDS011;28250;52.320;0.360;2022-09-09T03:11:24;8.90;;;3.30;;
42616;SDS011;28250;52.320;0.360;2022-09-09T03:13:52;8.13;;;2.83;;
42616;SDS011;28250;52.320;0.360;2022-09-09T03:16:22;4.90;;;2.53;;
42616;SDS011;28250;52.320;0.360;2022-09-09T03:18:51;8.43;;;2.58;;
42616;SDS011;28250;52.320;0.360;2022-09-09T03:21:19;8.48;;;3.15;;
42616;SDS011;28250;52.320;0.360;2022-09-09T03:23:46;8.80;;;2.70;;
42616;SDS011;28250;52.320;0.360;2022-09-09T03:26:14;5.90;;;2.58;;
42616;SDS011;28250;52.320;0.360;2022-09-09T03:28:44;9.30;;;2.83;;
42616;SDS011;28250;52.320;0.360;2022-09-09T03:31:13;13.68;;;3.17;;
42616;SDS011;28250;52.320;0.360;2022-09-09T03:33:41;10.02;;;3.63;;
42616;SDS011;28250;52.320;0.360;2022-09-09T03:36:11;11.32;;;3.38;;
42616;SDS011;28250;52.320;0.360;2022-09-09T03:38:38;8.67;;;2.57;;
42616;SDS011;28250;52.320;0.360;2022-09-09T03:41:05;10.02;;;3.13;;
42616;SDS011;28250;52.320;0.360;2022-09-09T03:43:33;9.43;;;2.88;;
42616;SDS011;28250;52.320;0.360;2022-09-09T03:46:00;9.45;;;3.72;;
42616;SDS011;28250;52.320;0.360;2022-09-09T03:48:28;9.82;;;3.10;;
42616;SDS011;28250;52.320;0.360;2022-09-09T03:50:55;9.10;;;3.28;;
42616;SDS011;28250;52.320;0.360;2022-09-09T03:53:26;8.13;;;3.70;;
42616;SDS011;28250;52.320;0.360;2022-09-09T03:55:55;6.30;;;2.90;;
42616;SDS011;28250;52.320;0.360;2022-09-09T03:58:26;6.20;;;3.50;;
42616;SDS011;28250;52.320;0.360;2022-09-09T04:01:01;7.30;;;2.92;;
42616;SDS011;28250;52.320;0.360;2022-09-09T04:03:30;10.38;;;3.13;;
42616;SDS011;28250;52.320;0.360;2022-09-09T04:05:58;9.80;;;3.63;;
42616;SDS011;28250;52.320;0.360;2022-09-09T04:08:28;13.38;;;4.65;;
42616;SDS011;28250;52.320;0.360;2022-09-09T04:10:58;11.52;;;6.53;;
42616;SDS011;28250;52.320;0.360;2022-09-09T04:13:28;18.85;;;9.02;;
42616;SDS011;28250;52.320;0.360;2022-09-09T04:15:57;13.70;;;6.80;;
42616;SDS011;28250;52.320;0.360;2022-09-09T04:18:25;14.43;;;6.38;;
42616;SDS011;28250;52.320;0.360;2022-09-09T04:20:54;10.43;;;5.35;;
42616;SDS011;28250;52.320;0.360;2022-09-09T04:23:25;8.40;;;6.03;;
42616;SDS011;28250;52.320;0.360;2022-09-09T04:25:56;13.65;;;7.10;;
42616;SDS011;28250;52.320;0.360;2022-09-09T04:28:26;13.27;;;6.50;;
42616;SDS011;28250;52.320;0.360;2022-09-09T04:30:56;11.65;;;5.55;;
42616;SDS011;28250;52.320;0.360;2022-09-09T04:33:30;11.70;;;5.35;;
42616;SDS011;28250;52.320;0.360;2022-09-09T04:35:57;14.77;;;5.57;;
42616;SDS011;28250;52.320;0.360;2022-09-09T04:38:26;14.65;;;6.15;;
42616;SDS011;28250;52.320;0.360;2022-09-09T04:40:54;11.18;;;5.72;;
42616;SDS011;28250;52.320;0.360;2022-09-09T04:48:19;14.63;;;7.07;;
42616;SDS011;28250;52.320;0.360;2022-09-09T04:53:36;11.77;;;5.20;;
42616;SDS011;28250;52.320;0.360;2022-09-09T04:56:05;13.85;;;5.10;;
42616;SDS011;28250;52.320;0.360;2022-09-09T04:58:40;12.00;;;4.35;;
42616;SDS011;28250;52.320;0.360;2022-09-09T05:01:11;11.88;;;4.30;;
42616;SDS011;28250;52.320;0.360;2022-09-09T05:03:44;9.27;;;4.32;;
42616;SDS011;28250;52.320;0.360;2022-09-09T05:06:16;13.45;;;4.55;;
42616;SDS011;28250;52.320;0.360;2022-09-09T05:08:46;14.60;;;5.10;;
42616;SDS011;28250;52.320;0.360;2022-09-09T05:11:19;11.77;;;4.22;;
42616;SDS011;28250;52.320;0.360;2022-09-09T05:13:51;10.07;;;4.03;;
42616;SDS011;28250;52.320;0.360;2022-09-09T05:16:19;8.77;;;4.13;;
42616;SDS011;28250;52.320;0.360;2022-09-09T05:21:15;13.90;;;4.18;;
42616;SDS011;28250;52.320;0.360;2022-09-09T05:23:44;7.38;;;3.65;;
42616;SDS011;28250;52.320;0.360;2022-09-09T05:26:13;9.82;;;4.28;;
42616;SDS011;28250;52.320;0.360;2022-09-09T05:28:45;11.80;;;5.05;;
42616;SDS011;28250;52.320;0.360;2022-09-09T05:31:13;13.52;;;4.55;;
42616;SDS011;28250;52.320;0.360;2022-09-09T05:33:43;13.40;;;4.78;;
42616;SDS011;28250;52.320;0.360;2022-09-09T05:36:14;9.35;;;4.47;;
42616;SDS011;28250;52.320;0.360;2022-09-09T05:38:49;14.75;;;4.10;;
42616;SDS011;28250;52.320;0.360;2022-09-09T05:41:16;13.93;;;5.25;;
42616;SDS011;28250;52.320;0.360;2022-09-09T05:43:44;11.13;;;4.80;;
42616;SDS011;28250;52.320;0.360;2022-09-09T05:46:13;13.52;;;5.85;;
42616;SDS011;28250;52.320;0.360;2022-09-09T05:48:44;11.70;;;6.53;;
42616;SDS011;28250;52.320;0.360;2022-09-09T05:51:14;17.40;;;6.88;;
42616;SDS011;28250;52.320;0.360;2022-09-09T05:53:45;16.42;;;7.68;;
42616;SDS011;28250;52.320;0.360;2022-09-09T05:56:14;13.40;;;7.15;;
42616;SDS011;28250;52.320;0.360;2022-09-09T05:58:43;18.38;;;8.35;;
42616;SDS011;28250;52.320;0.360;2022-09-09T06:01:14;17.48;;;8.73;;
42616;SDS011;28250;52.320;0.360;2022-09-09T06:03:47;20.13;;;10.40;;
42616;SDS011;28250;52.320;0.360;2022-09-09T06:06:17;26.35;;;10.23;;
42616;SDS011;28250;52.320;0.360;2022-09-09T06:08:48;18.67;;;8.77;;
42616;SDS011;28250;52.320;0.360;2022-09-09T06:11:18;20.77;;;9.35;;
42616;SDS011;28250;52.320;0.360;2022-09-09T06:13:49;23.13;;;10.13;;
42616;SDS011;28250;52.320;0.360;2022-09-09T06:16:19;21.98;;;9.18;;
42616;SDS011;28250;52.320;0.360;2022-09-09T06:18:50;23.83;;;8.90;;
42616;SDS011;28250;52.320;0.360;2022-09-09T06:21:18;19.15;;;9.18;;
42616;SDS011;28250;52.320;0.360;2022-09-09T06:23:50;23.60;;;9.68;;
42616;SDS011;28250;52.320;0.360;2022-09-09T06:26:18;22.02;;;8.73;;
42616;SDS011;28250;52.320;0.360;2022-09-09T06:28:49;19.52;;;9.07;;
42616;SDS011;28250;52.320;0.360;2022-09-09T06:31:19;18.90;;;8.65;;
42616;SDS011;28250;52.320;0.360;2022-09-09T06:33:50;18.48;;;8.40;;
42616;SDS011;28250;52.320;0.360;2022-09-09T06:36:20;21.20;;;8.68;;
42616;SDS011;28250;52.320;0.360;2022-09-09T06:38:50;21.42;;;7.72;;
42616;SDS011;28250;52.320;0.360;2022-09-09T06:41:19;15.60;;;7.55;;
42616;SDS011;28250;52.320;0.360;2022-09-09T06:43:48;12.57;;;7.25;;
42616;SDS011;28250;52.320;0.360;2022-09-09T06:48:45;11.00;;;6.03;;
42616;SDS011;28250;52.320;0.360;2022-09-09T06:51:15;10.70;;;6.05;;
42616;SDS011;28250;52.320;0.360;2022-09-09T06:53:49;12.55;;;5.45;;
42616;SDS011;28250;52.320;0.360;2022-09-09T06:56:19;10.10;;;5.88;;
42616;SDS011;28250;52.320;0.360;2022-09-09T06:58:53;10.38;;;6.30;;
42616;SDS011;28250;52.320;0.360;2022-09-09T07:01:26;13.07;;;6.35;;
42616;SDS011;28250;52.320;0.360;2022-09-09T07:03:59;10.55;;;5.82;;
42616;SDS011;28250;52.320;0.360;2022-09-09T07:06:28;8.88;;;5.82;;
42616;SDS011;28250;52.320;0.360;2022-09-09T07:09:00;11.93;;;5.93;;
42616;SDS011;28250;52.320;0.360;2022-09-09T07:11:39;12.10;;;6.70;;
42616;SDS011;28250;52.320;0.360;2022-09-09T07:14:09;18.02;;;8.07;;
42616;SDS011;28250;52.320;0.360;2022-09-09T07:16:41;19.08;;;8.13;;
42616;SDS011;28250;52.320;0.360;2022-09-09T07:19:09;17.42;;;8.82;;
42616;SDS011;28250;52.320;0.360;2022-09-09T07:21:37;23.25;;;10.52;;
42616;SDS011;28250;52.320;0.360;2022-09-09T07:24:06;21.08;;;9.65;;
42616;SDS011;28250;52.320;0.360;2022-09-09T07:26:36;27.85;;;9.80;;
42616;SDS011;28250;52.320;0.360;2022-09-09T07:29:04;20.80;;;9.02;;
42616;SDS011;28250;52.320;0.360;2022-09-09T07:31:33;27.13;;;11.35;;
42616;SDS011;28250;52.320;0.360;2022-09-09T07:34:05;24.92;;;11.60;;
42616;SDS011;28250;52.320;0.360;2022-09-09T07:36:35;27.85;;;12.40;;
42616;SDS011;28250;52.320;0.360;2022-09-09T07:39:08;31.25;;;13.30;;
42616;SDS011;28250;52.320;0.360;2022-09-09T07:41:42;30.17;;;13.57;;
42616;SDS011;28250;52.320;0.360;2022-09-09T07:44:14;22.85;;;12.20;;
42616;SDS011;28250;52.320;0.360;2022-09-09T07:46:46;24.60;;;12.20;;
42616;SDS011;28250;52.320;0.360;2022-09-09T07:49:17;26.42;;;12.13;;
42616;SDS011;28250;52.320;0.360;2022-09-09T07:51:45;27.70;;;12.02;;
42616;SDS011;28250;52.320;0.360;2022-09-09T07:54:15;28.58;;;12.93;;
42616;SDS011;28250;52.320;0.360;2022-09-09T07:56:48;23.95;;;10.40;;
42616;SDS011;28250;52.320;0.360;2022-09-09T07:59:17;26.38;;;10.77;;
42616;SDS011;28250;52.320;0.360;2022-09-09T08:01:48;25.98;;;10.93;;
42616;SDS011;28250;52.320;0.360;2022-09-09T08:04:22;28.38;;;10.95;;
42616;SDS011;28250;52.320;0.360;2022-09-09T08:06:55;26.30;;;11.32;;
42616;SDS011;28250;52.320;0.360;2022-09-09T08:09:26;26.08;;;11.32;;
42616;SDS011;28250;52.320;0.360;2022-09-09T08:12:01;25.90;;;11.50;;
42616;SDS011;28250;52.320;0.360;2022-09-09T08:14:28;24.30;;;12.23;;
42616;SDS011;28250;52.320;0.360;2022-09-09T08:16:56;18.05;;;9.95;;
42616;SDS011;28250;52.320;0.360;2022-09-09T08:19:26;17.48;;;9.27;;
42616;SDS011;28250;52.320;0.360;2022-09-09T08:21:56;18.25;;;9.32;;
42616;SDS011;28250;52.320;0.360;2022-09-09T08:24:23;21.42;;;9.20;;
42616;SDS011;28250;52.320;0.360;2022-09-09T08:26:50;18.98;;;9.20;;
42616;SDS011;28250;52.320;0.360;2022-09-09T08:29:21;23.27;;;10.55;;
42616;SDS011;28250;52.320;0.360;2022-09-09T08:31:49;19.45;;;10.95;;
42616;SDS011;28250;52.320;0.360;2022-09-09T08:34:20;27.08;;;12.45;;
42616;SDS011;28250;52.320;0.360;2022-09-09T08:36:49;25.65;;;12.50;;
42616;SDS011;28250;52.320;0.360;2022-09-09T08:39:20;29.65;;;13.50;;
42616;SDS011;28250;52.320;0.360;2022-09-09T08:41:58;33.15;;;14.30;;
42616;SDS011;28250;52.320;0.360;2022-09-09T09:06:34;49.00;;;19.35;;
42616;SDS011;28250;52.320;0.360;2022-09-09T09:15:01;55.97;;;21.75;;
42616;SDS011;28250;52.320;0.360;2022-09-09T09:17:37;58.53;;;22.08;;
42616;SDS011;28250;52.320;0.360;2022-09-09T09:20:10;53.10;;;21.50;;
42616;SDS011;28250;52.320;0.360;2022-09-09T09:22:48;49.15;;;20.83;;
42616;SDS011;28250;52.320;0.360;2022-09-09T09:27:57;58.00;;;22.35;;
42616;SDS011;28250;52.320;0.360;2022-09-09T09:30:54;57.60;;;24.90;;
42616;SDS011;28250;52.320;0.360;2022-09-09T09:36:12;52.00;;;21.27;;
42616;SDS011;28250;52.320;0.360;2022-09-09T09:41:33;55.30;;;23.17;;
42616;SDS011;28250;52.320;0.360;2022-09-09T09:44:05;53.80;;;23.58;;
42616;SDS011;28250;52.320;0.360;2022-09-09T09:46:50;56.45;;;24.83;;
42616;SDS011;28250;52.320;0.360;2022-09-09T09:49:16;59.33;;;24.73;;
42616;SDS011;28250;52.320;0.360;2022-09-09T09:51:44;53.75;;;22.20;;
42616;SDS011;28250;52.320;0.360;2022-09-09T09:56:39;52.42;;;23.08;;
42616;SDS011;28250;52.320;0.360;2022-09-09T10:02:12;63.05;;;25.13;;
42616;SDS011;28250;52.320;0.360;2022-09-09T10:05:06;49.53;;;22.88;;
42616;SDS011;28250;52.320;0.360;2022-09-09T10:13:20;46.13;;;22.33;;
42616;SDS011;28250;52.320;0.360;2022-09-09T10:16:06;45.45;;;22.63;;
42616;SDS011;28250;52.320;0.360;2022-09-09T10:18:58;40.28;;;22.02;;
42616;SDS011;28250;52.320;0.360;2022-09-09T10:21:32;39.63;;;20.63;;
42616;SDS011;28250;52.320;0.360;2022-09-09T10:29:32;25.75;;;14.43;;
42616;SDS011;28250;52.320;0.360;2022-09-09T10:35:08;23.05;;;12.13;;
42616;SDS011;28250;52.320;0.360;2022-09-09T10:40:19;23.75;;;11.63;;
42616;SDS011;28250;52.320;0.360;2022-09-09T10:48:50;21.67;;;13.13;;
42616;SDS011;28250;52.320;0.360;2022-09-09T10:57:23;20.25;;;13.15;;
42616;SDS011;28250;52.320;0.360;2022-09-09T10:59:56;17.15;;;10.80;;
42616;SDS011;28250;52.320;0.360;2022-09-09T11:02:30;12.02;;;8.05;;
42616;SDS011;28250;52.320;0.360;2022-09-09T11:05:04;10.35;;;4.68;;
42616;SDS011;28250;52.320;0.360;2022-09-09T11:07:54;7.30;;;4.00;;
42616;SDS011;28250;52.320;0.360;2022-09-09T11:16:36;8.15;;;4.13;;
42616;SDS011;28250;52.320;0.360;2022-09-09T11:27:26;9.38;;;3.30;;
42616;SDS011;28250;52.320;0.360;2022-09-09T11:35:47;7.03;;;2.88;;
42616;SDS011;28250;52.320;0.360;2022-09-09T11:41:13;8.73;;;3.83;;
42616;SDS011;28250;52.320;0.360;2022-09-09T11:43:42;6.47;;;3.33;;
42616;SDS011;28250;52.320;0.360;2022-09-09T11:46:12;5.00;;;3.22;;
42616;SDS011;28250;52.320;0.360;2022-09-09T11:48:43;4.45;;;2.67;;
42616;SDS011;28250;52.320;0.360;2022-09-09T11:51:25;5.05;;;3.17;;
42616;SDS011;28250;52.320;0.360;2022-09-09T11:53:56;5.25;;;3.10;;
42616;SDS011;28250;52.320;0.360;2022-09-09T11:56:29;6.45;;;2.80;;
42616;SDS011;28250;52.320;0.360;2022-09-09T11:59:00;5.53;;;4.10;;
42616;SDS011;28250;52.320;0.360;2022-09-09T12:01:34;4.22;;;2.92;;
42616;SDS011;28250;52.320;0.360;2022-09-09T12:06:43;4.68;;;4.20;;
42616;SDS011;28250;52.320;0.360;2022-09-09T12:12:05;8.45;;;3.88;;
42616;SDS011;28250;52.320;0.360;2022-09-09T12:14:56;4.57;;;3.67;;
42616;SDS011;28250;52.320;0.360;2022-09-09T12:17:27;4.70;;;2.97;;
42616;SDS011;28250;52.320;0.360;2022-09-09T12:19:59;6.18;;;3.40;;
42616;SDS011;28250;52.320;0.360;2022-09-09T12:25:41;8.43;;;3.90;;
42616;SDS011;28250;52.320;0.360;2022-09-09T12:28:39;5.88;;;3.78;;
42616;SDS011;28250;52.320;0.360;2022-09-09T12:37:19;3.90;;;2.10;;
42616;SDS011;28250;52.320;0.360;2022-09-09T12:39:59;4.38;;;1.65;;
42616;SDS011;28250;52.320;0.360;2022-09-09T12:42:28;4.93;;;2.38;;
42616;SDS011;28250;52.320;0.360;2022-09-09T12:44:57;3.03;;;1.98;;
42616;SDS011;28250;52.320;0.360;2022-09-09T12:50:21;5.00;;;2.47;;
42616;SDS011;28250;52.320;0.360;2022-09-09T12:52:54;3.83;;;2.80;;
42616;SDS011;28250;52.320;0.360;2022-09-09T12:55:28;5.13;;;2.60;;
42616;SDS011;28250;52.320;0.360;2022-09-09T12:58:00;5.47;;;2.53;;
42616;SDS011;28250;52.320;0.360;2022-09-09T13:00:31;8.48;;;3.22;;
42616;SDS011;28250;52.320;0.360;2022-09-09T13:03:01;6.15;;;2.90;;
42616;SDS011;28250;52.320;0.360;2022-09-09T13:05:42;8.48;;;3.17;;
42616;SDS011;28250;52.320;0.360;2022-09-09T13:08:09;9.32;;;3.60;;
42616;SDS011;28250;52.320;0.360;2022-09-09T13:13:26;8.15;;;3.15;;
42616;SDS011;28250;52.320;0.360;2022-09-09T13:15:58;9.43;;;3.78;;
42616;SDS011;28250;52.320;0.360;2022-09-09T13:18:28;5.82;;;3.63;;
42616;SDS011;28250;52.320;0.360;2022-09-09T13:21:01;8.55;;;4.15;;
42616;SDS011;28250;52.320;0.360;2022-09-09T13:23:30;8.88;;;4.35;;
42616;SDS011;28250;52.320;0.360;2022-09-09T13:26:02;5.78;;;3.55;;
42616;SDS011;28250;52.320;0.360;2022-09-09T13:28:34;4.88;;;2.63;;
42616;SDS011;28250;52.320;0.360;2022-09-09T13:31:03;5.45;;;4.07;;
42616;SDS011;28250;52.320;0.360;2022-09-09T13:33:34;10.10;;;4.85;;
42616;SDS011;28250;52.320;0.360;2022-09-09T13:36:03;8.52;;;5.03;;
42616;SDS011;28250;52.320;0.360;2022-09-09T13:38:38;9.30;;;5.88;;
42616;SDS011;28250;52.320;0.360;2022-09-09T13:41:29;10.40;;;5.95;;
42616;SDS011;28250;52.320;0.360;2022-09-09T13:44:02;14.10;;;6.93;;
42616;SDS011;28250;52.320;0.360;2022-09-09T13:49:02;11.90;;;6.57;;
42616;SDS011;28250;52.320;0.360;2022-09-09T13:54:05;11.45;;;6.82;;
42616;SDS011;28250;52.320;0.360;2022-09-09T13:56:36;12.35;;;5.78;;
42616;SDS011;28250;52.320;0.360;2022-09-09T13:59:05;11.70;;;5.38;;
42616;SDS011;28250;52.320;0.360;2022-09-09T14:01:37;11.80;;;5.50;;
42616;SDS011;28250;52.320;0.360;2022-09-09T14:04:04;10.30;;;5.50;;
42616;SDS011;28250;52.320;0.360;2022-09-09T14:06:32;10.45;;;5.65;;
42616;SDS011;28250;52.320;0.360;2022-09-09T14:09:02;9.15;;;3.88;;
42616;SDS011;28250;52.320;0.360;2022-09-09T14:11:30;4.80;;;2.70;;
42616;SDS011;28250;52.320;0.360;2022-09-09T14:13:57;6.50;;;3.30;;
42616;SDS011;28250;52.320;0.360;2022-09-09T14:16:23;9.93;;;5.00;;
42616;SDS011;28250;52.320;0.360;2022-09-09T14:18:53;11.35;;;5.95;;
42616;SDS011;28250;52.320;0.360;2022-09-09T14:21:23;12.38;;;6.00;;
42616;SDS011;28250;52.320;0.360;2022-09-09T14:23:50;15.80;;;7.10;;
42616;SDS011;28250;52.320;0.360;2022-09-09T14:26:20;9.77;;;5.22;;
42616;SDS011;28250;52.320;0.360;2022-09-09T14:28:49;9.77;;;4.90;;
42616;SDS011;28250;52.320;0.360;2022-09-09T14:31:17;9.07;;;4.57;;
42616;SDS011;28250;52.320;0.360;2022-09-09T14:33:45;10.38;;;4.68;;
42616;SDS011;28250;52.320;0.360;2022-09-09T14:36:11;6.70;;;3.60;;
42616;SDS011;28250;52.320;0.360;2022-09-09T14:38:38;5.60;;;3.25;;
42616;SDS011;28250;52.320;0.360;2022-09-09T14:41:06;5.13;;;2.60;;
42616;SDS011;28250;52.320;0.360;2022-09-09T14:43:37;4.63;;;2.35;;
42616;SDS011;28250;52.320;0.360;2022-09-09T14:46:06;5.13;;;2.15;;
42616;SDS011;28250;52.320;0.360;2022-09-09T14:48:34;4.30;;;1.80;;
42616;SDS011;28250;52.320;0.360;2022-09-09T14:51:07;5.15;;;1.92;;
42616;SDS011;28250;52.320;0.360;2022-09-09T14:53:36;3.08;;;1.80;;
42616;SDS011;28250;52.320;0.360;2022-09-09T14:56:04;5.95;;;2.10;;
42616;SDS011;28250;52.320;0.360;2022-09-09T14:58:35;5.35;;;2.72;;
42616;SDS011;28250;52.320;0.360;2022-09-09T15:01:04;6.18;;;3.15;;
42616;SDS011;28250;52.320;0.360;2022-09-09T15:03:34;5.18;;;2.92;;
42616;SDS011;28250;52.320;0.360;2022-09-09T15:06:05;4.35;;;2.30;;
42616;SDS011;28250;52.320;0.360;2022-09-09T15:08:37;6.35;;;3.42;;
42616;SDS011;28250;52.320;0.360;2022-09-09T15:11:07;7.15;;;3.35;;
42616;SDS011;28250;52.320;0.360;2022-09-09T15:13:35;7.90;;;3.50;;
42616;SDS011;28250;52.320;0.360;2022-09-09T15:16:05;8.27;;;4.93;;
42616;SDS011;28250;52.320;0.360;2022-09-09T15:18:34;11.35;;;5.35;;
42616;SDS011;28250;52.320;0.360;2022-09-09T15:21:03;9.38;;;4.90;;
42616;SDS011;28250;52.320;0.360;2022-09-09T15:23:32;8.05;;;4.22;;
42616;SDS011;28250;52.320;0.360;2022-09-09T15:26:00;8.13;;;4.75;;
42616;SDS011;28250;52.320;0.360;2022-09-09T15:28:28;11.38;;;4.80;;
42616;SDS011;28250;52.320;0.360;2022-09-09T15:30:57;10.05;;;5.68;;
42616;SDS011;28250;52.320;0.360;2022-09-09T15:33:25;9.80;;;5.32;;
42616;SDS011;28250;52.320;0.360;2022-09-09T15:35:51;10.52;;;5.28;;
42616;SDS011;28250;52.320;0.360;2022-09-09T15:38:18;9.53;;;5.33;;
42616;SDS011;28250;52.320;0.360;2022-09-09T15:40:45;15.13;;;6.30;;
42616;SDS011;28250;52.320;0.360;2022-09-09T15:43:20;15.60;;;5.45;;
42616;SDS011;28250;52.320;0.360;2022-09-09T15:45:49;9.32;;;3.83;;
42616;SDS011;28250;52.320;0.360;2022-09-09T15:48:29;4.85;;;3.70;;
42616;SDS011;28250;52.320;0.360;2022-09-09T15:51:04;4.28;;;2.55;;
42616;SDS011;28250;52.320;0.360;2022-09-09T15:53:31;4.13;;;2.70;;
42616;SDS011;28250;52.320;0.360;2022-09-09T15:55:58;4.93;;;2.22;;
42616;SDS011;28250;52.320;0.360;2022-09-09T15:58:29;4.93;;;2.03;;
42616;SDS011;28250;52.320;0.360;2022-09-09T16:01:03;4.57;;;2.00;;
42616;SDS011;28250;52.320;0.360;2022-09-09T16:03:40;4.03;;;2.20;;
42616;SDS011;28250;52.320;0.360;2022-09-09T16:06:08;5.30;;;1.95;;
42616;SDS011;28250;52.320;0.360;2022-09-09T16:08:36;6.43;;;2.35;;
42616;SDS011;28250;52.320;0.360;2022-09-09T16:11:14;5.65;;;2.20;;
42616;SDS011;28250;52.320;0.360;2022-09-09T16:13:46;3.70;;;2.00;;
42616;SDS011;28250;52.320;0.360;2022-09-09T16:16:15;5.95;;;2.03;;
42616;SDS011;28250;52.320;0.360;2022-09-09T16:18:46;4.50;;;2.30;;
42616;SDS011;28250;52.320;0.360;2022-09-09T16:21:19;6.18;;;2.28;;
42616;SDS011;28250;52.320;0.360;2022-09-09T16:23:50;7.60;;;2.40;;
42616;SDS011;28250;52.320;0.360;2022-09-09T16:26:19;9.43;;;2.20;;
42616;SDS011;28250;52.320;0.360;2022-09-09T16:28:46;3.78;;;2.20;;
42616;SDS011;28250;52.320;0.360;2022-09-09T16:31:16;3.83;;;2.17;;
42616;SDS011;28250;52.320;0.360;2022-09-09T16:33:45;4.07;;;2.28;;
42616;SDS011;28250;52.320;0.360;2022-09-09T16:36:14;3.80;;;2.60;;
42616;SDS011;28250;52.320;0.360;2022-09-09T16:38:43;5.55;;;2.47;;
42616;SDS011;28250;52.320;0.360;2022-09-09T16:41:11;5.43;;;2.85;;
42616;SDS011;28250;52.320;0.360;2022-09-09T16:43:39;6.43;;;3.42;;
42616;SDS011;28250;52.320;0.360;2022-09-09T16:46:14;5.25;;;2.67;;
42616;SDS011;28250;52.320;0.360;2022-09-09T16:48:44;5.95;;;3.30;;
42616;SDS011;28250;52.320;0.360;2022-09-09T16:51:14;4.40;;;2.42;;
42616;SDS011;28250;52.320;0.360;2022-09-09T16:53:49;6.72;;;2.80;;
42616;SDS011;28250;52.320;0.360;2022-09-09T16:56:19;5.75;;;2.88;;
42616;SDS011;28250;52.320;0.360;2022-09-09T16:58:52;3.38;;;2.30;;
42616;SDS011;28250;52.320;0.360;2022-09-09T17:01:22;3.35;;;2.33;;
42616;SDS011;28250;52.320;0.360;2022-09-09T17:03:56;3.75;;;2.55;;
42616;SDS011;28250;52.320;0.360;2022-09-09T17:06:27;8.82;;;3.00;;
42616;SDS011;28250;52.320;0.360;2022-09-09T17:08:57;6.32;;;3.72;;
42616;SDS011;28250;52.320;0.360;2022-09-09T17:11:28;3.42;;;3.03;;
42616;SDS011;28250;52.320;0.360;2022-09-09T17:13:56;4.80;;;3.10;;
42616;SDS011;28250;52.320;0.360;2022-09-09T17:16:24;5.18;;;3.42;;
42616;SDS011;28250;52.320;0.360;2022-09-09T17:18:54;5.47;;;3.58;;
42616;SDS011;28250;52.320;0.360;2022-09-09T17:21:23;6.63;;;3.10;;
42616;SDS011;28250;52.320;0.360;2022-09-09T17:23:52;5.28;;;3.80;;
42616;SDS011;28250;52.320;0.360;2022-09-09T17:26:21;5.35;;;3.28;;
42616;SDS011;28250;52.320;0.360;2022-09-09T17:28:52;5.40;;;3.22;;
42616;SDS011;28250;52.320;0.360;2022-09-09T17:31:21;4.13;;;2.58;;
42616;SDS011;28250;52.320;0.360;2022-09-09T17:33:48;6.25;;;2.50;;
42616;SDS011;28250;52.320;0.360;2022-09-09T17:36:20;5.45;;;2.70;;
42616;SDS011;28250;52.320;0.360;2022-09-09T17:38:50;3.00;;;2.22;;
42616;SDS011;28250;52.320;0.360;2022-09-09T17:41:18;4.40;;;3.30;;
42616;SDS011;28250;52.320;0.360;2022-09-09T17:43:51;4.43;;;2.53;;
42616;SDS011;28250;52.320;0.360;2022-09-09T17:48:48;4.10;;;2.53;;
42616;SDS011;28250;52.320;0.360;2022-09-09T17:51:18;3.75;;;2.80;;
42616;SDS011;28250;52.320;0.360;2022-09-09T17:53:51;4.75;;;2.88;;
42616;SDS011;28250;52.320;0.360;2022-09-09T17:56:20;3.53;;;2.35;;
42616;SDS011;28250;52.320;0.360;2022-09-09T17:58:49;7.13;;;3.40;;
42616;SDS011;28250;52.320;0.360;2022-09-09T18:01:19;5.70;;;2.97;;
42616;SDS011;28250;52.320;0.360;2022-09-09T18:03:49;6.45;;;2.60;;
42616;SDS011;28250;52.320;0.360;2022-09-09T18:06:20;4.25;;;2.50;;
42616;SDS011;28250;52.320;0.360;2022-09-09T18:08:51;3.55;;;2.70;;
42616;SDS011;28250;52.320;0.360;2022-09-09T18:11:22;3.33;;;2.10;;
42616;SDS011;28250;52.320;0.360;2022-09-09T18:13:54;4.32;;;2.63;;
42616;SDS011;28250;52.320;0.360;2022-09-09T18:16:26;4.78;;;2.47;;